Main page
METAR-TAF:

METAR-TAF

Airports :

Bandar Abbas International Airport

Bandar Abbas, Iran

latitude: 27-13N, longitude: 056-22E, elevation: 10 m

Current weather observation

The report was made 45 minutes ago, at 01:00 UTC
Wind 4 kt from the North
Temperature 28°C
Humidity 84%
Pressure 999 hPa
Visibility: 5000 m
Scattered clouds at a height of 10000 ft
mist

METAR: OIKB 200100Z 01004KT 5000 BR SCT100 28/25 Q0998 A2949

Time: 06:15 (01:45 UTC)

Forecast

The report was made 2 hours and 45 minutes ago, at 23:00 UTC
Forecast valid from 20 at 00 UTC to 21 at 06 UTC
Wind 8 kt from the South/Southwest
Visibility: 4000 m
mist
Becoming
from 20 at 05 UTC to 20 at 07 UTC
Wind 8 kt from the East/Southeast
Visibility: 6000 m
Temporary
from 20 at 10 UTC to 20 at 17 UTC
Wind 17 kt from the Southwest
Visibility: 4000 m
sand

TAF: OIKB 192300Z 2000/2106 20004MPS 4000 BR NSC BECMG 2005/2007 12004MPS 6000 NSC TEMPO 2010/2017 22009MPS 4000 SA

Weather observations and forecasts of more than 4000 airports (METAR and TAF reports).

The available stations are represented by yellow and red dots on the map.

Hover mouse over dot to see the name of the station.

Then click to see weather observations and forecasts.

To change the map : click on the green buttons with a black cross to zoom in, on the green button with a dash to zoom out, or on the green arrows for adjacent maps.


METAR-TAF: